sensor_id;sensor_type;location;lat;lon;timestamp;temperature;humidity
11491;DHT22;5802;52.832;4.758;2023-04-03T00:00:29;23.10;39.70
11491;DHT22;5802;52.832;4.758;2023-04-03T00:02:56;23.10;39.70
11491;DHT22;5802;52.832;4.758;2023-04-03T00:05:23;23.00;39.70
11491;DHT22;5802;52.832;4.758;2023-04-03T00:07:50;23.10;39.60
11491;DHT22;5802;52.832;4.758;2023-04-03T00:10:18;23.10;39.60
11491;DHT22;5802;52.832;4.758;2023-04-03T00:12:45;23.10;39.60
11491;DHT22;5802;52.832;4.758;2023-04-03T00:15:12;23.10;39.60
11491;DHT22;5802;52.832;4.758;2023-04-03T00:17:39;23.10;39.60
11491;DHT22;5802;52.832;4.758;2023-04-03T00:20:06;23.10;39.60
11491;DHT22;5802;52.832;4.758;2023-04-03T00:22:33;23.10;39.60
11491;DHT22;5802;52.832;4.758;2023-04-03T00:25:00;23.10;39.60
11491;DHT22;5802;52.832;4.758;2023-04-03T00:27:28;23.10;39.60
11491;DHT22;5802;52.832;4.758;2023-04-03T00:29:55;23.00;39.60
11491;DHT22;5802;52.832;4.758;2023-04-03T00:32:21;23.00;39.60
11491;DHT22;5802;52.832;4.758;2023-04-03T00:34:48;23.00;39.60
11491;DHT22;5802;52.832;4.758;2023-04-03T00:37:15;23.00;39.60
11491;DHT22;5802;52.832;4.758;2023-04-03T00:39:42;23.00;39.60
11491;DHT22;5802;52.832;4.758;2023-04-03T00:42:08;23.00;39.60
11491;DHT22;5802;52.832;4.758;2023-04-03T00:47:55;23.00;39.60
11491;DHT22;5802;52.832;4.758;2023-04-03T00:50:22;23.00;39.60
11491;DHT22;5802;52.832;4.758;2023-04-03T00:52:49;23.00;39.60
11491;DHT22;5802;52.832;4.758;2023-04-03T00:55:17;23.00;39.60
11491;DHT22;5802;52.832;4.758;2023-04-03T00:57:45;23.00;39.60
11491;DHT22;5802;52.832;4.758;2023-04-03T01:00:15;23.00;39.60
11491;DHT22;5802;52.832;4.758;2023-04-03T01:02:43;23.00;39.60
11491;DHT22;5802;52.832;4.758;2023-04-03T01:05:11;23.00;39.60
11491;DHT22;5802;52.832;4.758;2023-04-03T01:07:39;23.00;39.70
11491;DHT22;5802;52.832;4.758;2023-04-03T01:10:08;23.00;39.70
11491;DHT22;5802;52.832;4.758;2023-04-03T01:12:37;22.90;39.60
11491;DHT22;5802;52.832;4.758;2023-04-03T01:15:06;22.90;39.70
11491;DHT22;5802;52.832;4.758;2023-04-03T01:17:36;22.90;39.70
11491;DHT22;5802;52.832;4.758;2023-04-03T01:23:14;22.90;39.80
11491;DHT22;5802;52.832;4.758;2023-04-03T01:25:45;22.90;39.80
11491;DHT22;5802;52.832;4.758;2023-04-03T01:28:15;22.90;39.90
11491;DHT22;5802;52.832;4.758;2023-04-03T01:30:45;22.90;39.80
11491;DHT22;5802;52.832;4.758;2023-04-03T01:33:15;22.80;39.80
11491;DHT22;5802;52.832;4.758;2023-04-03T01:35:42;22.90;39.80
11491;DHT22;5802;52.832;4.758;2023-04-03T01:38:08;22.90;39.90
11491;DHT22;5802;52.832;4.758;2023-04-03T01:40:35;22.90;39.80
11491;DHT22;5802;52.832;4.758;2023-04-03T01:43:02;22.80;39.80
11491;DHT22;5802;52.832;4.758;2023-04-03T01:45:29;22.80;39.80
11491;DHT22;5802;52.832;4.758;2023-04-03T01:47:56;22.80;39.90
11491;DHT22;5802;52.832;4.758;2023-04-03T01:50:24;22.80;39.90
11491;DHT22;5802;52.832;4.758;2023-04-03T01:52:51;22.80;39.90
11491;DHT22;5802;52.832;4.758;2023-04-03T01:55:17;22.80;39.90
11491;DHT22;5802;52.832;4.758;2023-04-03T01:57:44;22.80;39.90
11491;DHT22;5802;52.832;4.758;2023-04-03T02:00:12;22.80;39.90
11491;DHT22;5802;52.832;4.758;2023-04-03T02:02:39;22.80;39.90
11491;DHT22;5802;52.832;4.758;2023-04-03T02:05:06;22.80;39.90
11491;DHT22;5802;52.832;4.758;2023-04-03T02:07:34;22.80;39.90
11491;DHT22;5802;52.832;4.758;2023-04-03T02:10:01;22.80;40.00
11491;DHT22;5802;52.832;4.758;2023-04-03T02:12:28;22.80;40.00
11491;DHT22;5802;52.832;4.758;2023-04-03T02:14:55;22.80;40.00
11491;DHT22;5802;52.832;4.758;2023-04-03T02:17:22;22.80;40.00
11491;DHT22;5802;52.832;4.758;2023-04-03T02:19:48;22.80;40.00
11491;DHT22;5802;52.832;4.758;2023-04-03T02:22:15;22.80;40.00
11491;DHT22;5802;52.832;4.758;2023-04-03T02:24:43;22.80;40.00
11491;DHT22;5802;52.832;4.758;2023-04-03T02:27:10;22.80;40.00
11491;DHT22;5802;52.832;4.758;2023-04-03T02:29:37;22.80;40.00
11491;DHT22;5802;52.832;4.758;2023-04-03T02:32:04;22.80;40.00
11491;DHT22;5802;52.832;4.758;2023-04-03T02:34:31;22.80;40.00
11491;DHT22;5802;52.832;4.758;2023-04-03T02:36:58;22.80;40.00
11491;DHT22;5802;52.832;4.758;2023-04-03T02:39:24;22.80;40.00
11491;DHT22;5802;52.832;4.758;2023-04-03T02:41:52;22.80;40.20
11491;DHT22;5802;52.832;4.758;2023-04-03T02:44:19;22.80;40.10
11491;DHT22;5802;52.832;4.758;2023-04-03T02:46:46;22.80;40.10
11491;DHT22;5802;52.832;4.758;2023-04-03T02:49:12;22.80;40.10
11491;DHT22;5802;52.832;4.758;2023-04-03T02:51:39;22.80;40.10
11491;DHT22;5802;52.832;4.758;2023-04-03T02:54:06;22.80;40.10
11491;DHT22;5802;52.832;4.758;2023-04-03T02:56:32;22.80;40.10
11491;DHT22;5802;52.832;4.758;2023-04-03T02:59:01;22.80;40.10
11491;DHT22;5802;52.832;4.758;2023-04-03T03:01:27;22.80;40.10
11491;DHT22;5802;52.832;4.758;2023-04-03T03:03:56;22.80;40.10
11491;DHT22;5802;52.832;4.758;2023-04-03T03:06:23;22.80;40.10
11491;DHT22;5802;52.832;4.758;2023-04-03T03:08:50;22.80;40.10
11491;DHT22;5802;52.832;4.758;2023-04-03T03:11:17;22.80;40.10
11491;DHT22;5802;52.832;4.758;2023-04-03T03:13:43;22.80;40.10
11491;DHT22;5802;52.832;4.758;2023-04-03T03:16:11;22.80;40.10
11491;DHT22;5802;52.832;4.758;2023-04-03T03:18:38;22.80;40.10
11491;DHT22;5802;52.832;4.758;2023-04-03T03:21:05;22.80;40.10
11491;DHT22;5802;52.832;4.758;2023-04-03T03:23:33;22.80;40.10
11491;DHT22;5802;52.832;4.758;2023-04-03T03:26:01;22.80;40.10
11491;DHT22;5802;52.832;4.758;2023-04-03T03:28:28;22.80;40.10
11491;DHT22;5802;52.832;4.758;2023-04-03T03:30:56;22.80;40.10
11491;DHT22;5802;52.832;4.758;2023-04-03T03:33:24;22.80;40.10
11491;DHT22;5802;52.832;4.758;2023-04-03T03:35:51;22.80;40.10
11491;DHT22;5802;52.832;4.758;2023-04-03T03:38:18;22.80;40.10
11491;DHT22;5802;52.832;4.758;2023-04-03T03:40:46;22.80;40.10
11491;DHT22;5802;52.832;4.758;2023-04-03T03:43:13;22.80;40.10
11491;DHT22;5802;52.832;4.758;2023-04-03T03:45:40;22.80;40.20
11491;DHT22;5802;52.832;4.758;2023-04-03T03:48:07;22.80;40.10
11491;DHT22;5802;52.832;4.758;2023-04-03T03:50:35;22.80;40.10
11491;DHT22;5802;52.832;4.758;2023-04-03T03:53:02;22.80;40.10
11491;DHT22;5802;52.832;4.758;2023-04-03T03:55:28;22.80;40.20
11491;DHT22;5802;52.832;4.758;2023-04-03T03:57:55;22.80;40.10
11491;DHT22;5802;52.832;4.758;2023-04-03T04:00:22;22.80;40.10
11491;DHT22;5802;52.832;4.758;2023-04-03T04:02:48;22.80;40.10
11491;DHT22;5802;52.832;4.758;2023-04-03T04:05:15;22.80;40.10
11491;DHT22;5802;52.832;4.758;2023-04-03T04:07:43;22.90;40.20
11491;DHT22;5802;52.832;4.758;2023-04-03T04:10:10;22.90;40.20
11491;DHT22;5802;52.832;4.758;2023-04-03T04:12:37;22.90;40.10
11491;DHT22;5802;52.832;4.758;2023-04-03T04:15:04;22.80;40.10
11491;DHT22;5802;52.832;4.758;2023-04-03T04:17:32;22.90;40.20
11491;DHT22;5802;52.832;4.758;2023-04-03T04:20:00;22.90;40.10
11491;DHT22;5802;52.832;4.758;2023-04-03T04:22:27;22.90;40.20
11491;DHT22;5802;52.832;4.758;2023-04-03T04:24:56;22.90;40.10
11491;DHT22;5802;52.832;4.758;2023-04-03T04:27:22;22.90;40.20
11491;DHT22;5802;52.832;4.758;2023-04-03T04:29:49;22.90;40.20
11491;DHT22;5802;52.832;4.758;2023-04-03T04:32:16;22.90;40.20
11491;DHT22;5802;52.832;4.758;2023-04-03T04:34:42;22.90;40.20
11491;DHT22;5802;52.832;4.758;2023-04-03T04:37:09;22.90;40.20
11491;DHT22;5802;52.832;4.758;2023-04-03T04:39:36;22.90;40.20
11491;DHT22;5802;52.832;4.758;2023-04-03T04:42:04;22.90;40.20
11491;DHT22;5802;52.832;4.758;2023-04-03T04:44:32;22.90;40.20
11491;DHT22;5802;52.832;4.758;2023-04-03T04:46:59;22.90;40.20
11491;DHT22;5802;52.832;4.758;2023-04-03T04:49:26;22.90;40.20
11491;DHT22;5802;52.832;4.758;2023-04-03T04:51:52;22.90;40.20
11491;DHT22;5802;52.832;4.758;2023-04-03T04:54:20;22.90;40.10
11491;DHT22;5802;52.832;4.758;2023-04-03T04:56:46;22.90;40.10
11491;DHT22;5802;52.832;4.758;2023-04-03T04:59:15;22.90;40.10
11491;DHT22;5802;52.832;4.758;2023-04-03T05:01:41;22.90;40.10
11491;DHT22;5802;52.832;4.758;2023-04-03T05:04:08;22.90;40.10
11491;DHT22;5802;52.832;4.758;2023-04-03T05:06:35;22.90;40.10
11491;DHT22;5802;52.832;4.758;2023-04-03T05:09:02;22.90;40.10
11491;DHT22;5802;52.832;4.758;2023-04-03T05:11:28;22.90;40.10
11491;DHT22;5802;52.832;4.758;2023-04-03T05:13:55;22.90;40.10
11491;DHT22;5802;52.832;4.758;2023-04-03T05:16:23;22.90;40.10
11491;DHT22;5802;52.832;4.758;2023-04-03T05:18:50;22.90;40.10
11491;DHT22;5802;52.832;4.758;2023-04-03T05:21:17;22.90;40.10
11491;DHT22;5802;52.832;4.758;2023-04-03T05:23:44;22.90;40.10
11491;DHT22;5802;52.832;4.758;2023-04-03T05:26:11;22.90;40.10
11491;DHT22;5802;52.832;4.758;2023-04-03T05:28:38;23.00;40.10
11491;DHT22;5802;52.832;4.758;2023-04-03T05:31:04;23.00;40.10
11491;DHT22;5802;52.832;4.758;2023-04-03T05:33:32;23.00;40.10
11491;DHT22;5802;52.832;4.758;2023-04-03T05:36:02;23.00;40.10
11491;DHT22;5802;52.832;4.758;2023-04-03T05:38:29;23.00;40.10
11491;DHT22;5802;52.832;4.758;2023-04-03T05:40:56;23.00;40.10
11491;DHT22;5802;52.832;4.758;2023-04-03T05:43:23;23.00;40.10
11491;DHT22;5802;52.832;4.758;2023-04-03T05:45:51;23.00;40.10
11491;DHT22;5802;52.832;4.758;2023-04-03T05:48:17;23.00;40.00
11491;DHT22;5802;52.832;4.758;2023-04-03T05:50:46;23.00;40.00
11491;DHT22;5802;52.832;4.758;2023-04-03T05:53:16;23.00;40.00
11491;DHT22;5802;52.832;4.758;2023-04-03T05:55:44;23.00;40.00
11491;DHT22;5802;52.832;4.758;2023-04-03T05:58:11;23.00;40.00
11491;DHT22;5802;52.832;4.758;2023-04-03T06:00:38;23.00;40.00
11491;DHT22;5802;52.832;4.758;2023-04-03T06:03:05;23.00;40.00
11491;DHT22;5802;52.832;4.758;2023-04-03T06:05:32;23.10;40.00
11491;DHT22;5802;52.832;4.758;2023-04-03T06:08:00;23.10;40.00
11491;DHT22;5802;52.832;4.758;2023-04-03T06:10:27;23.10;40.00
11491;DHT22;5802;52.832;4.758;2023-04-03T06:12:53;23.10;40.00
11491;DHT22;5802;52.832;4.758;2023-04-03T06:15:20;23.10;40.00
11491;DHT22;5802;52.832;4.758;2023-04-03T06:17:47;23.10;40.00
11491;DHT22;5802;52.832;4.758;2023-04-03T06:20:14;23.10;40.00
11491;DHT22;5802;52.832;4.758;2023-04-03T06:22:41;23.20;40.00
11491;DHT22;5802;52.832;4.758;2023-04-03T06:25:09;23.20;40.00
11491;DHT22;5802;52.832;4.758;2023-04-03T06:27:36;23.20;40.00
11491;DHT22;5802;52.832;4.758;2023-04-03T06:30:04;23.20;40.00
11491;DHT22;5802;52.832;4.758;2023-04-03T06:32:32;23.20;40.00
11491;DHT22;5802;52.832;4.758;2023-04-03T06:34:59;23.20;40.00
11491;DHT22;5802;52.832;4.758;2023-04-03T06:37:26;23.20;40.00
11491;DHT22;5802;52.832;4.758;2023-04-03T06:39:54;23.20;40.00
11491;DHT22;5802;52.832;4.758;2023-04-03T06:42:22;23.20;40.00
11491;DHT22;5802;52.832;4.758;2023-04-03T06:44:49;23.30;40.00
11491;DHT22;5802;52.832;4.758;2023-04-03T06:47:17;23.30;40.00
11491;DHT22;5802;52.832;4.758;2023-04-03T06:49:44;23.30;40.00
11491;DHT22;5802;52.832;4.758;2023-04-03T06:52:11;23.30;39.90
11491;DHT22;5802;52.832;4.758;2023-04-03T06:54:39;23.30;39.90
11491;DHT22;5802;52.832;4.758;2023-04-03T06:57:06;23.40;39.90
11491;DHT22;5802;52.832;4.758;2023-04-03T06:59:35;23.40;39.90
11491;DHT22;5802;52.832;4.758;2023-04-03T07:02:02;23.40;39.90
11491;DHT22;5802;52.832;4.758;2023-04-03T07:04:28;23.40;39.80
11491;DHT22;5802;52.832;4.758;2023-04-03T07:06:56;23.50;39.80
11491;DHT22;5802;52.832;4.758;2023-04-03T07:09:22;23.50;39.80
11491;DHT22;5802;52.832;4.758;2023-04-03T07:11:50;23.60;39.70
11491;DHT22;5802;52.832;4.758;2023-04-03T07:14:16;23.60;39.70
11491;DHT22;5802;52.832;4.758;2023-04-03T07:16:44;23.60;39.60
11491;DHT22;5802;52.832;4.758;2023-04-03T07:19:11;23.70;39.60
11491;DHT22;5802;52.832;4.758;2023-04-03T07:21:38;23.70;39.50
11491;DHT22;5802;52.832;4.758;2023-04-03T07:24:07;23.70;39.40
11491;DHT22;5802;52.832;4.758;2023-04-03T07:26:34;23.80;39.40
11491;DHT22;5802;52.832;4.758;2023-04-03T07:29:00;23.80;39.30
11491;DHT22;5802;52.832;4.758;2023-04-03T07:31:28;23.90;39.30
11491;DHT22;5802;52.832;4.758;2023-04-03T07:33:56;23.90;39.20
11491;DHT22;5802;52.832;4.758;2023-04-03T07:36:23;23.90;39.10
11491;DHT22;5802;52.832;4.758;2023-04-03T07:38:50;24.00;39.00
11491;DHT22;5802;52.832;4.758;2023-04-03T07:41:18;24.00;39.00
11491;DHT22;5802;52.832;4.758;2023-04-03T07:43:46;24.10;38.90
11491;DHT22;5802;52.832;4.758;2023-04-03T07:46:15;24.20;38.90
11491;DHT22;5802;52.832;4.758;2023-04-03T07:48:43;24.20;38.80
11491;DHT22;5802;52.832;4.758;2023-04-03T07:51:12;24.20;38.70
11491;DHT22;5802;52.832;4.758;2023-04-03T07:53:39;24.20;38.60
11491;DHT22;5802;52.832;4.758;2023-04-03T07:56:06;24.30;38.60
11491;DHT22;5802;52.832;4.758;2023-04-03T07:58:33;24.30;38.50
11491;DHT22;5802;52.832;4.758;2023-04-03T08:01:00;24.40;38.40
11491;DHT22;5802;52.832;4.758;2023-04-03T08:03:27;24.50;38.40
11491;DHT22;5802;52.832;4.758;2023-04-03T08:05:53;24.50;38.30
11491;DHT22;5802;52.832;4.758;2023-04-03T08:08:22;24.50;38.30
11491;DHT22;5802;52.832;4.758;2023-04-03T08:10:50;24.50;38.10
11491;DHT22;5802;52.832;4.758;2023-04-03T08:13:18;24.60;38.10
11491;DHT22;5802;52.832;4.758;2023-04-03T08:15:45;24.70;38.10
11491;DHT22;5802;52.832;4.758;2023-04-03T08:18:11;24.70;38.00
11491;DHT22;5802;52.832;4.758;2023-04-03T08:20:38;24.70;38.00
11491;DHT22;5802;52.832;4.758;2023-04-03T08:23:05;24.70;38.50
11491;DHT22;5802;52.832;4.758;2023-04-03T08:25:33;24.80;37.80
11491;DHT22;5802;52.832;4.758;2023-04-03T08:28:00;24.80;37.70
11491;DHT22;5802;52.832;4.758;2023-04-03T08:30:27;24.90;37.90
11491;DHT22;5802;52.832;4.758;2023-04-03T08:32:54;24.90;37.60
11491;DHT22;5802;52.832;4.758;2023-04-03T08:35:21;25.00;37.60
11491;DHT22;5802;52.832;4.758;2023-04-03T08:37:47;25.00;37.50
11491;DHT22;5802;52.832;4.758;2023-04-03T08:40:15;25.00;37.50
11491;DHT22;5802;52.832;4.758;2023-04-03T08:42:54;25.10;37.40
11491;DHT22;5802;52.832;4.758;2023-04-03T08:45:27;25.10;37.40
11491;DHT22;5802;52.832;4.758;2023-04-03T08:48:04;25.20;37.40
11491;DHT22;5802;52.832;4.758;2023-04-03T08:50:37;25.20;37.30
11491;DHT22;5802;52.832;4.758;2023-04-03T08:53:11;25.20;37.20
11491;DHT22;5802;52.832;4.758;2023-04-03T08:55:41;25.30;37.20
11491;DHT22;5802;52.832;4.758;2023-04-03T08:58:12;25.30;37.10
11491;DHT22;5802;52.832;4.758;2023-04-03T09:00:44;25.30;37.10
11491;DHT22;5802;52.832;4.758;2023-04-03T09:03:12;25.40;37.30
11491;DHT22;5802;52.832;4.758;2023-04-03T09:05:43;25.40;37.00
11491;DHT22;5802;52.832;4.758;2023-04-03T09:08:20;25.50;37.00
11491;DHT22;5802;52.832;4.758;2023-04-03T09:10:49;25.50;36.90
11491;DHT22;5802;52.832;4.758;2023-04-03T09:13:24;25.50;36.80
11491;DHT22;5802;52.832;4.758;2023-04-03T09:15:53;25.60;36.90
11491;DHT22;5802;52.832;4.758;2023-04-03T09:18:23;25.60;36.80
11491;DHT22;5802;52.832;4.758;2023-04-03T09:20:58;25.70;36.80
11491;DHT22;5802;52.832;4.758;2023-04-03T09:23:31;25.70;36.70
11491;DHT22;5802;52.832;4.758;2023-04-03T09:26:03;25.70;36.70
11491;DHT22;5802;52.832;4.758;2023-04-03T09:28:33;25.80;36.60
11491;DHT22;5802;52.832;4.758;2023-04-03T09:31:02;25.80;36.60
11491;DHT22;5802;52.832;4.758;2023-04-03T09:33:32;25.80;36.60
11491;DHT22;5802;52.832;4.758;2023-04-03T09:36:00;25.80;36.60
11491;DHT22;5802;52.832;4.758;2023-04-03T09:38:27;25.90;36.50
11491;DHT22;5802;52.832;4.758;2023-04-03T09:41:04;25.90;36.50
11491;DHT22;5802;52.832;4.758;2023-04-03T09:43:33;25.90;36.40
11491;DHT22;5802;52.832;4.758;2023-04-03T09:46:24;25.90;36.40
11491;DHT22;5802;52.832;4.758;2023-04-03T09:48:57;25.90;36.40
11491;DHT22;5802;52.832;4.758;2023-04-03T09:51:25;25.90;36.30
11491;DHT22;5802;52.832;4.758;2023-04-03T09:53:53;25.90;36.30
11491;DHT22;5802;52.832;4.758;2023-04-03T09:56:22;26.00;36.40
11491;DHT22;5802;52.832;4.758;2023-04-03T09:58:52;26.00;36.30
11491;DHT22;5802;52.832;4.758;2023-04-03T10:01:34;25.90;36.30
11491;DHT22;5802;52.832;4.758;2023-04-03T10:04:08;26.00;36.30
11491;DHT22;5802;52.832;4.758;2023-04-03T10:06:36;25.90;36.20
11491;DHT22;5802;52.832;4.758;2023-04-03T10:09:17;26.00;36.90
11491;DHT22;5802;52.832;4.758;2023-04-03T10:11:59;26.00;36.20
11491;DHT22;5802;52.832;4.758;2023-04-03T10:14:29;26.00;36.30
11491;DHT22;5802;52.832;4.758;2023-04-03T10:17:06;25.90;36.00
11491;DHT22;5802;52.832;4.758;2023-04-03T10:19:43;26.00;36.00
11491;DHT22;5802;52.832;4.758;2023-04-03T10:22:18;26.00;36.00
11491;DHT22;5802;52.832;4.758;2023-04-03T10:24:52;26.00;36.60
11491;DHT22;5802;52.832;4.758;2023-04-03T10:27:34;26.00;36.60
11491;DHT22;5802;52.832;4.758;2023-04-03T10:30:17;26.00;35.80
11491;DHT22;5802;52.832;4.758;2023-04-03T10:32:54;26.00;35.80
11491;DHT22;5802;52.832;4.758;2023-04-03T10:35:35;26.00;35.70
11491;DHT22;5802;52.832;4.758;2023-04-03T10:38:09;26.00;35.60
11491;DHT22;5802;52.832;4.758;2023-04-03T10:40:44;26.00;35.70
11491;DHT22;5802;52.832;4.758;2023-04-03T10:43:19;26.10;35.70
11491;DHT22;5802;52.832;4.758;2023-04-03T10:45:55;26.00;35.70
11491;DHT22;5802;52.832;4.758;2023-04-03T10:48:48;26.10;36.40
11491;DHT22;5802;52.832;4.758;2023-04-03T10:51:23;26.10;35.80
11491;DHT22;5802;52.832;4.758;2023-04-03T10:53:57;26.00;35.60
11491;DHT22;5802;52.832;4.758;2023-04-03T10:56:31;26.00;35.70
11491;DHT22;5802;52.832;4.758;2023-04-03T10:59:07;26.00;35.70
11491;DHT22;5802;52.832;4.758;2023-04-03T11:01:42;26.00;35.70
11491;DHT22;5802;52.832;4.758;2023-04-03T11:04:11;26.00;35.70
11491;DHT22;5802;52.832;4.758;2023-04-03T11:06:42;26.00;35.80
11491;DHT22;5802;52.832;4.758;2023-04-03T11:09:18;26.00;35.70
11491;DHT22;5802;52.832;4.758;2023-04-03T11:11:47;26.00;35.70
11491;DHT22;5802;52.832;4.758;2023-04-03T11:14:19;26.00;35.70
11491;DHT22;5802;52.832;4.758;2023-04-03T11:16:57;26.00;35.70
11491;DHT22;5802;52.832;4.758;2023-04-03T11:19:33;26.00;35.70
11491;DHT22;5802;52.832;4.758;2023-04-03T11:22:04;26.00;35.70
11491;DHT22;5802;52.832;4.758;2023-04-03T11:24:33;25.90;35.70
11491;DHT22;5802;52.832;4.758;2023-04-03T11:27:05;25.90;35.60
11491;DHT22;5802;52.832;4.758;2023-04-03T11:29:40;25.90;35.70
11491;DHT22;5802;52.832;4.758;2023-04-03T11:32:20;25.90;35.70
11491;DHT22;5802;52.832;4.758;2023-04-03T11:34:53;25.90;36.30
11491;DHT22;5802;52.832;4.758;2023-04-03T11:37:29;25.90;35.70
11491;DHT22;5802;52.832;4.758;2023-04-03T11:40:01;25.90;35.70
11491;DHT22;5802;52.832;4.758;2023-04-03T11:42:33;25.90;35.60
11491;DHT22;5802;52.832;4.758;2023-04-03T11:45:25;25.90;35.60
11491;DHT22;5802;52.832;4.758;2023-04-03T11:47:57;25.90;35.60
11491;DHT22;5802;52.832;4.758;2023-04-03T11:50:41;25.90;35.50
11491;DHT22;5802;52.832;4.758;2023-04-03T11:53:31;25.90;35.50
11491;DHT22;5802;52.832;4.758;2023-04-03T11:56:04;25.90;35.50
11491;DHT22;5802;52.832;4.758;2023-04-03T11:58:32;25.90;35.40
11491;DHT22;5802;52.832;4.758;2023-04-03T12:01:10;25.90;36.00
11491;DHT22;5802;52.832;4.758;2023-04-03T12:06:53;25.90;35.30
11491;DHT22;5802;52.832;4.758;2023-04-03T12:12:29;25.90;35.20
11491;DHT22;5802;52.832;4.758;2023-04-03T12:14:57;25.90;35.20
11491;DHT22;5802;52.832;4.758;2023-04-03T12:17:38;25.90;35.10
11491;DHT22;5802;52.832;4.758;2023-04-03T12:23:24;26.00;35.10
11491;DHT22;5802;52.832;4.758;2023-04-03T12:25:51;26.00;35.10
11491;DHT22;5802;52.832;4.758;2023-04-03T12:28:27;26.00;35.00
11491;DHT22;5802;52.832;4.758;2023-04-03T12:30:53;26.00;35.00
11491;DHT22;5802;52.832;4.758;2023-04-03T12:33:30;26.00;34.80
11491;DHT22;5802;52.832;4.758;2023-04-03T12:36:07;26.10;34.80
11491;DHT22;5802;52.832;4.758;2023-04-03T12:38:52;26.10;34.70
11491;DHT22;5802;52.832;4.758;2023-04-03T12:41:27;26.10;34.90
11491;DHT22;5802;52.832;4.758;2023-04-03T12:44:13;26.10;35.00
11491;DHT22;5802;52.832;4.758;2023-04-03T12:46:45;26.10;34.80
11491;DHT22;5802;52.832;4.758;2023-04-03T12:49:22;26.10;34.80
11491;DHT22;5802;52.832;4.758;2023-04-03T12:51:51;26.10;34.80
11491;DHT22;5802;52.832;4.758;2023-04-03T12:54:22;26.10;34.80
11491;DHT22;5802;52.832;4.758;2023-04-03T12:56:50;26.10;34.80
11491;DHT22;5802;52.832;4.758;2023-04-03T12:59:19;26.20;34.90
11491;DHT22;5802;52.832;4.758;2023-04-03T13:01:53;26.20;34.80
11491;DHT22;5802;52.832;4.758;2023-04-03T13:04:20;26.20;34.80
11491;DHT22;5802;52.832;4.758;2023-04-03T13:06:47;26.20;34.80
11491;DHT22;5802;52.832;4.758;2023-04-03T13:09:21;26.20;34.80
11491;DHT22;5802;52.832;4.758;2023-04-03T13:11:51;26.20;34.80
11491;DHT22;5802;52.832;4.758;2023-04-03T13:14:21;26.20;34.80
11491;DHT22;5802;52.832;4.758;2023-04-03T13:16:55;26.20;34.90
11491;DHT22;5802;52.832;4.758;2023-04-03T13:19:23;26.20;34.80
11491;DHT22;5802;52.832;4.758;2023-04-03T13:21:54;26.20;34.80
11491;DHT22;5802;52.832;4.758;2023-04-03T13:24:24;26.20;34.80
11491;DHT22;5802;52.832;4.758;2023-04-03T13:26:52;26.20;34.80
11491;DHT22;5802;52.832;4.758;2023-04-03T13:29:23;26.10;34.70
11491;DHT22;5802;52.832;4.758;2023-04-03T13:31:53;26.20;34.60
11491;DHT22;5802;52.832;4.758;2023-04-03T13:34:23;26.20;34.20
11491;DHT22;5802;52.832;4.758;2023-04-03T13:36:57;26.10;34.20
11491;DHT22;5802;52.832;4.758;2023-04-03T13:39:28;26.20;34.40
11491;DHT22;5802;52.832;4.758;2023-04-03T13:41:55;26.20;34.40
11491;DHT22;5802;52.832;4.758;2023-04-03T13:44:30;26.10;34.30
11491;DHT22;5802;52.832;4.758;2023-04-03T13:46:59;26.10;34.20
11491;DHT22;5802;52.832;4.758;2023-04-03T13:49:32;26.10;33.90
11491;DHT22;5802;52.832;4.758;2023-04-03T13:51:59;26.10;33.80
11491;DHT22;5802;52.832;4.758;2023-04-03T13:54:30;26.10;33.70
11491;DHT22;5802;52.832;4.758;2023-04-03T13:56:59;26.20;33.70
11491;DHT22;5802;52.832;4.758;2023-04-03T13:59:29;26.20;33.60
11491;DHT22;5802;52.832;4.758;2023-04-03T14:02:13;26.20;33.50
11491;DHT22;5802;52.832;4.758;2023-04-03T14:04:50;26.20;33.30
11491;DHT22;5802;52.832;4.758;2023-04-03T14:07:18;26.20;33.30
11491;DHT22;5802;52.832;4.758;2023-04-03T14:09:48;26.20;33.30
11491;DHT22;5802;52.832;4.758;2023-04-03T14:12:21;26.20;33.30
11491;DHT22;5802;52.832;4.758;2023-04-03T14:14:50;26.20;33.90
11491;DHT22;5802;52.832;4.758;2023-04-03T14:17:19;26.20;33.30
11491;DHT22;5802;52.832;4.758;2023-04-03T14:19:48;26.20;33.20
11491;DHT22;5802;52.832;4.758;2023-04-03T14:22:17;26.20;33.20
11491;DHT22;5802;52.832;4.758;2023-04-03T14:24:43;26.20;33.20
11491;DHT22;5802;52.832;4.758;2023-04-03T14:27:17;26.20;33.10
11491;DHT22;5802;52.832;4.758;2023-04-03T14:29:44;26.20;33.00
11491;DHT22;5802;52.832;4.758;2023-04-03T14:32:12;26.20;32.90
11491;DHT22;5802;52.832;4.758;2023-04-03T14:34:40;26.20;33.00
11491;DHT22;5802;52.832;4.758;2023-04-03T14:37:10;26.20;33.00
11491;DHT22;5802;52.832;4.758;2023-04-03T14:39:37;26.20;33.00
11491;DHT22;5802;52.832;4.758;2023-04-03T14:42:04;26.20;33.00
11491;DHT22;5802;52.832;4.758;2023-04-03T14:44:32;26.20;32.90
11491;DHT22;5802;52.832;4.758;2023-04-03T14:46:59;26.20;32.90
11491;DHT22;5802;52.832;4.758;2023-04-03T14:49:27;26.20;32.80
11491;DHT22;5802;52.832;4.758;2023-04-03T14:51:55;26.20;32.70
11491;DHT22;5802;52.832;4.758;2023-04-03T14:54:22;26.20;32.70
11491;DHT22;5802;52.832;4.758;2023-04-03T14:56:53;26.20;32.80
11491;DHT22;5802;52.832;4.758;2023-04-03T14:59:21;26.20;32.70
11491;DHT22;5802;52.832;4.758;2023-04-03T15:01:49;26.20;32.70
11491;DHT22;5802;52.832;4.758;2023-04-03T15:04:17;26.20;32.50
11491;DHT22;5802;52.832;4.758;2023-04-03T15:06:45;26.20;32.40
11491;DHT22;5802;52.832;4.758;2023-04-03T15:09:19;26.20;32.40
11491;DHT22;5802;52.832;4.758;2023-04-03T15:11:46;26.20;32.50
11491;DHT22;5802;52.832;4.758;2023-04-03T15:14:13;26.20;32.70
11491;DHT22;5802;52.832;4.758;2023-04-03T15:16:40;26.20;32.70
11491;DHT22;5802;52.832;4.758;2023-04-03T15:19:08;26.20;32.80
11491;DHT22;5802;52.832;4.758;2023-04-03T15:21:35;26.20;32.80
11491;DHT22;5802;52.832;4.758;2023-04-03T15:24:02;26.20;32.90
11491;DHT22;5802;52.832;4.758;2023-04-03T15:26:29;26.20;33.00
11491;DHT22;5802;52.832;4.758;2023-04-03T15:28:56;26.20;32.90
11491;DHT22;5802;52.832;4.758;2023-04-03T15:31:22;26.20;32.90
11491;DHT22;5802;52.832;4.758;2023-04-03T15:33:50;26.20;32.90
11491;DHT22;5802;52.832;4.758;2023-04-03T15:36:19;26.20;32.80
11491;DHT22;5802;52.832;4.758;2023-04-03T15:38:45;26.20;32.90
11491;DHT22;5802;52.832;4.758;2023-04-03T15:41:12;26.20;33.00
11491;DHT22;5802;52.832;4.758;2023-04-03T15:43:39;26.10;32.90
11491;DHT22;5802;52.832;4.758;2023-04-03T15:46:05;26.10;32.90
11491;DHT22;5802;52.832;4.758;2023-04-03T15:48:32;26.10;32.90
11491;DHT22;5802;52.832;4.758;2023-04-03T15:51:00;26.10;33.00
11491;DHT22;5802;52.832;4.758;2023-04-03T15:53:34;26.00;33.10
11491;DHT22;5802;52.832;4.758;2023-04-03T15:56:00;26.00;33.20
11491;DHT22;5802;52.832;4.758;2023-04-03T15:58:27;26.00;33.30
11491;DHT22;5802;52.832;4.758;2023-04-03T16:00:54;25.90;33.30
11491;DHT22;5802;52.832;4.758;2023-04-03T16:03:21;25.90;33.50
11491;DHT22;5802;52.832;4.758;2023-04-03T16:05:50;25.80;33.50
11491;DHT22;5802;52.832;4.758;2023-04-03T16:08:17;25.80;33.50
11491;DHT22;5802;52.832;4.758;2023-04-03T16:10:45;25.80;33.80
11491;DHT22;5802;52.832;4.758;2023-04-03T16:13:12;25.80;33.80